Dahlonega, GA (30533)

11:55 AM EST on December 10, 2016 (GMT -0500)
Ridgeway Road | | Change Station

Elev 1519 ft 34.50 °N, 84.03 °W | Updated 3 minutes ago

Clear
Clear
40.6 °F
Feels Like 41 °F
N
2.2
Wind Variable Wind from NE

Today
High -- | Low -- °F
--% Chance of Precip.
Yesterday
High -- | Low -- °F
Precip. -- in
Pressure 30.53 in
Visibility 10.0 miles
Clouds Clear
Windchill 41 °F
Dew Point 18 °F
Humidity 40%
Rainfall 0.00 in
Snow Depth Not available.
7:32 AM 5:25 PM
Waxing Gibbous, 85% visible
METAR KGVL 101653Z AUTO 05003KT 10SM CLR 04/M08 A3051 RMK AO2 SLP339 T00441078
Pressure 30.53 in
Visibility 10.0 miles
Clouds Clear
Windchill 41 °F
Dew Point 18 °F
Humidity 40%
Rainfall 0.00 in
Snow Depth Not available.
7:32 AM 5:25 PM
Waxing Gibbous, 85% visible
METAR KGVL 101653Z AUTO 05003KT 10SM CLR 04/M08 A3051 RMK AO2 SLP339 T00441078

10-Day Weather Forecast

Almanac

Astronomy

Dec. 10, 2016 Rise Set
Actual Time
Civil Twilight
Nautical Twilight
Astronomical Twilight
Moon
Length of Visible Light
Length of Day
Tomorrow will be .
, % of the Moon is Illuminated

Today's Extremes

State Highs State Lows

Community

WunderPhotos

Upload Photos

1,956,569 photos uploaded!

WunderBlog® & News

Nearby

Air Quality

  Air Quality AQ Index Pollutant
Not available.

Snow Depth

Station Depth Elevation

Earthquake Activity

City Distance Mag. Time & Date
Minimum magnitude displayed is 2.5.

Coastal Water Temperatures

Place Temperature

Stations

Nearby Weather Stations

Station Location Temp. Windchill Dew Point Humidity Wind Precip. Elev Updated Type
                   

Watches & Warnings

There are currently no watches in effect.